Time;durP1;ratioP1;P1;durP2;ratioP2;P2;SDS_P1;SDS_P2;PMS_P1;PMS_P2;Temp;Humidity;BMP_temperature;BMP_pressure;BME280_temperature;BME280_humidity;BME280_pressure;Samples;Min_cycle;Max_cycle;Signal;HPM_P1;HPM_P2
2022/01/10 00:02:15;;;;;;;32.05;5.90;;;4.60;99.90;;;;;;6076374;23;20018;-84
2022/01/10 00:04:44;;;;;;;31.55;6.22;;;4.70;99.90;;;;;;6076347;23;20010;-84
2022/01/10 00:07:10;;;;;;;30.70;5.30;;;5.20;99.90;;;;;;6101160;23;20448;-84
2022/01/10 00:09:49;;;;;;;29.65;5.45;;;4.50;99.90;;;;;;6126211;23;20018;-83
2022/01/10 00:12:18;;;;;;;23.73;5.20;;;4.50;99.90;;;;;;6149332;23;20345;-84
2022/01/10 00:14:44;;;;;;;32.83;6.05;;;;;;;;;;6100252;23;20449;-80
2022/01/10 00:17:21;;;;;;;24.17;4.57;;;4.40;99.90;;;;;;6099306;23;20010;-79
2022/01/10 00:19:47;;;;;;;22.40;4.80;;;4.30;99.90;;;;;;6100197;23;20018;-79
2022/01/10 00:22:13;;;;;;;22.98;4.78;;;4.80;99.90;;;;;;6076182;23;20018;-80
2022/01/10 00:24:41;;;;;;;22.20;4.22;;;4.80;99.90;;;;;;6125939;23;20016;-80
2022/01/10 00:27:10;;;;;;;25.30;5.05;;;5.20;99.90;;;;;;6076249;23;20025;-79
2022/01/10 00:29:36;;;;;;;19.42;4.82;;;4.30;99.90;;;;;;6076709;23;20022;-79
2022/01/10 00:32:08;;;;;;;24.02;4.47;;;4.20;99.90;;;;;;6125543;23;20021;-83
2022/01/10 00:34:34;;;;;;;23.65;4.22;;;4.20;99.90;;;;;;6077014;23;20017;-84
2022/01/10 00:37:00;;;;;;;32.45;5.10;;;4.20;99.90;;;;;;6108538;23;20352;-84
2022/01/10 00:39:29;;;;;;;26.38;4.55;;;4.20;99.90;;;;;;6134979;23;20017;-83
2022/01/10 00:41:56;;;;;;;24.80;4.50;;;4.10;99.90;;;;;;6085701;23;20351;-83
2022/01/10 00:44:27;;;;;;;24.35;5.10;;;3.80;99.90;;;;;;6134714;23;20071;-84
2022/01/10 00:46:53;;;;;;;23.58;4.40;;;5.10;99.90;;;;;;6135268;23;20317;-84
2022/01/10 00:49:20;;;;;;;26.00;5.00;;;;;;;;;;6158129;23;20016;-84
2022/01/10 00:51:46;;;;;;;24.17;4.35;;;;;;;;;;6133719;23;20024;-84
2022/01/10 00:54:12;;;;;;;19.17;4.68;;;4.00;99.90;;;;;;6158863;23;20009;-84
2022/01/10 00:56:48;;;;;;;20.90;4.85;;;4.90;99.90;;;;;;6158568;23;20087;-84
2022/01/10 00:59:14;;;;;;;23.98;4.80;;;4.00;99.90;;;;;;6109867;23;20111;-84
2022/01/10 01:01:42;;;;;;;30.08;5.13;;;4.90;99.90;;;;;;6133995;23;20013;-84
2022/01/10 01:04:08;;;;;;;30.00;5.78;;;4.00;99.90;;;;;;6158847;23;20041;-83
2022/01/10 01:06:54;;;;;;;26.02;4.65;;;3.40;99.90;;;;;;6158706;23;20348;-85
2022/01/10 01:12:32;;;;;;;24.30;5.22;;;4.40;99.90;;;;;;6160028;23;19974;-86
2022/01/10 01:15:17;;;;;;;18.35;4.68;;;3.20;99.90;;;;;;6136247;23;20590;-86
2022/01/10 01:17:57;;;;;;;27.60;4.53;;;3.80;99.90;;;;;;6186912;23;20370;-84
2022/01/10 01:20:31;;;;;;;22.17;5.03;;;3.70;99.90;;;;;;6159902;23;20395;-84
2022/01/10 01:25:41;;;;;;;17.20;4.38;;;4.40;99.90;;;;;;6139180;23;20013;-86
2022/01/10 01:28:07;;;;;;;22.70;4.40;;;4.50;99.90;;;;;;6160314;23;20458;-86
2022/01/10 01:30:33;;;;;;;26.80;4.80;;;4.60;99.90;;;;;;6136019;23;20017;-86
2022/01/10 01:32:59;;;;;;;21.42;4.53;;;4.30;99.90;;;;;;6159824;23;20020;-86
2022/01/10 01:35:25;;;;;;;14.60;4.47;;;;;;;;;;6160344;23;20021;-84
2022/01/10 01:37:52;;;;;;;26.13;4.90;;;3.70;99.90;;;;;;6185658;23;20020;-84
2022/01/10 01:40:21;;;;;;;24.88;4.63;;;4.60;99.90;;;;;;6186614;23;20132;-84
2022/01/10 01:42:47;;;;;;;30.52;5.45;;;3.70;99.90;;;;;;6159834;23;20013;-85
2022/01/10 01:45:15;;;;;;;28.80;6.05;;;4.60;99.90;;;;;;6135219;23;20013;-85
2022/01/10 01:47:47;;;;;;;29.38;5.18;;;3.80;99.90;;;;;;6160291;23;20013;-85
2022/01/10 01:50:15;;;;;;;21.70;5.30;;;4.30;99.90;;;;;;6136409;23;20072;-85
2022/01/10 01:52:44;;;;;;;23.77;5.13;;;3.60;99.90;;;;;;6135654;23;20008;-85
2022/01/10 01:55:10;;;;;;;23.23;5.40;;;3.50;99.90;;;;;;6135461;23;20603;-85
2022/01/10 01:57:37;;;;;;;25.13;4.97;;;3.50;99.90;;;;;;6159882;23;20321;-85
2022/01/10 02:00:04;;;;;;;22.77;5.20;;;4.00;99.90;;;;;;6135539;23;20025;-84
2022/01/10 02:02:30;;;;;;;17.60;4.82;;;3.50;99.90;;;;;;6135480;23;20024;-85
2022/01/10 02:04:57;;;;;;;20.95;5.03;;;4.70;99.90;;;;;;6186540;23;20017;-85
2022/01/10 02:07:25;;;;;;;24.52;5.22;;;4.10;99.90;;;;;;6160104;23;20020;-85
2022/01/10 02:09:51;;;;;;;22.25;5.10;;;3.10;99.90;;;;;;6135608;23;20017;-85
2022/01/10 02:12:17;;;;;;;28.85;5.60;;;3.90;99.90;;;;;;6160066;23;20067;-85
2022/01/10 02:14:46;;;;;;;28.27;5.07;;;3.70;99.90;;;;;;6087463;23;20017;-85
2022/01/10 02:17:14;;;;;;;23.17;5.30;;;;;;;;;;6135487;23;20087;-85
2022/01/10 02:19:42;;;;;;;21.67;5.70;;;3.40;99.90;;;;;;6185793;23;20325;-84
2022/01/10 02:22:08;;;;;;;22.02;5.63;;;3.10;99.90;;;;;;6160116;23;20040;-83
2022/01/10 02:24:34;;;;;;;31.05;5.10;;;4.40;99.90;;;;;;6135264;23;20463;-83
2022/01/10 02:27:02;;;;;;;23.83;5.20;;;3.80;99.90;;;;;;6135389;23;20013;-83
2022/01/10 02:29:33;;;;;;;21.58;4.72;;;3.30;99.90;;;;;;6159835;23;20017;-83
2022/01/10 02:32:00;;;;;;;21.38;4.97;;;3.30;99.90;;;;;;6136489;23;20458;-83
2022/01/10 02:34:26;;;;;;;22.63;5.10;;;3.30;99.90;;;;;;6159792;23;20017;-83
2022/01/10 02:36:56;;;;;;;23.38;5.35;;;2.70;99.90;;;;;;6111209;23;20091;-83
2022/01/10 02:39:24;;;;;;;18.08;5.05;;;3.30;99.90;;;;;;6135435;23;20088;-83
2022/01/10 02:41:50;;;;;;;20.42;5.68;;;3.20;99.90;;;;;;6159918;23;20407;-83
2022/01/10 02:44:17;;;;;;;24.42;5.25;;;3.20;99.90;;;;;;6135191;23;20009;-84
2022/01/10 02:46:47;;;;;;;28.08;5.43;;;3.20;99.90;;;;;;6110962;23;20013;-84
2022/01/10 02:49:25;;;;;;;23.27;5.50;;;3.30;99.90;;;;;;6186610;23;20442;-84
2022/01/10 02:51:53;;;;;;;27.88;5.97;;;3.40;99.90;;;;;;6160309;23;20091;-86
2022/01/10 02:54:22;;;;;;;20.02;5.82;;;3.20;99.90;;;;;;6187042;23;20013;-83
2022/01/10 02:56:53;;;;;;;22.15;5.72;;;3.10;99.90;;;;;;6160154;23;20080;-83
2022/01/10 02:59:21;;;;;;;23.75;6.63;;;3.20;99.90;;;;;;6184874;23;20021;-83
2022/01/10 03:01:47;;;;;;;21.23;5.55;;;3.80;99.90;;;;;;6134777;23;20029;-83
2022/01/10 03:04:15;;;;;;;18.63;5.47;;;3.10;99.90;;;;;;6137231;23;20009;-82
2022/01/10 03:06:44;;;;;;;19.98;5.90;;;3.30;99.90;;;;;;6137506;23;20020;-83
2022/01/10 03:09:13;;;;;;;30.10;6.47;;;3.10;99.90;;;;;;6161007;23;20017;-83
2022/01/10 03:11:43;;;;;;;27.05;6.50;;;3.70;99.90;;;;;;6135630;23;20012;-83
2022/01/10 03:14:11;;;;;;;18.63;5.53;;;3.10;99.90;;;;;;6186255;23;20024;-83
2022/01/10 03:16:38;;;;;;;25.73;5.28;;;3.50;99.90;;;;;;6110628;23;20052;-83
2022/01/10 03:19:06;;;;;;;24.55;5.65;;;3.60;99.90;;;;;;6160277;23;20135;-84
2022/01/10 03:21:33;;;;;;;25.88;5.80;;;3.20;99.90;;;;;;6111103;23;20013;-84
2022/01/10 03:23:59;;;;;;;21.75;5.78;;;4.00;99.90;;;;;;6135331;23;20144;-85
2022/01/10 03:26:26;;;;;;;24.98;5.72;;;3.30;99.90;;;;;;6135306;23;20435;-85
2022/01/10 03:28:53;;;;;;;23.95;5.90;;;3.50;99.90;;;;;;6135178;23;20052;-84
2022/01/10 03:31:19;;;;;;;22.33;6.22;;;3.10;99.90;;;;;;6160386;23;20013;-85
2022/01/10 03:33:45;;;;;;;24.63;5.60;;;3.00;99.90;;;;;;6110777;23;20497;-84
2022/01/10 03:36:12;;;;;;;24.52;5.70;;;3.00;99.90;;;;;;6135071;23;20075;-85
2022/01/10 03:38:43;;;;;;;23.63;5.68;;;3.90;99.90;;;;;;6136958;23;20026;-85
2022/01/10 03:41:09;;;;;;;23.30;6.22;;;3.70;99.90;;;;;;6125323;23;20014;-85
2022/01/10 03:43:37;;;;;;;24.80;6.15;;;3.60;99.90;;;;;;6101188;23;20049;-85
2022/01/10 03:46:03;;;;;;;24.80;5.80;;;3.00;99.90;;;;;;6124887;23;20022;-84
2022/01/10 03:48:34;;;;;;;21.65;5.70;;;3.10;99.90;;;;;;6100790;23;20441;-87
2022/01/10 03:50:59;;;;;;;16.42;5.97;;;3.00;99.90;;;;;;6077780;23;20020;-87
2022/01/10 03:53:26;;;;;;;25.83;7.20;;;2.70;99.90;;;;;;6101690;23;20046;-87
2022/01/10 03:55:52;;;;;;;22.15;6.28;;;2.90;99.90;;;;;;6101127;23;20512;-88
2022/01/10 03:58:20;;;;;;;21.23;6.53;;;2.90;99.90;;;;;;6077053;23;20045;-87
2022/01/10 04:00:46;;;;;;;23.92;6.65;;;3.70;99.90;;;;;;6100567;23;20018;-87
2022/01/10 04:03:12;;;;;;;27.23;6.68;;;3.70;99.90;;;;;;6125121;23;20444;-87
2022/01/10 04:05:38;;;;;;;22.63;6.53;;;3.80;99.90;;;;;;6101000;23;20507;-87
2022/01/10 04:08:04;;;;;;;25.33;6.72;;;2.90;99.90;;;;;;6125128;23;20467;-87
2022/01/10 04:10:30;;;;;;;23.38;6.75;;;2.90;99.90;;;;;;6100957;23;20069;-87
2022/01/10 04:12:56;;;;;;;25.83;7.50;;;2.90;99.90;;;;;;6100529;23;20026;-87
2022/01/10 04:15:22;;;;;;;24.00;7.43;;;3.30;99.90;;;;;;6125205;23;20013;-87
2022/01/10 04:17:55;;;;;;;25.05;7.25;;;2.80;99.90;;;;;;6125199;23;20014;-87
2022/01/10 04:20:23;;;;;;;22.67;7.78;;;3.10;99.90;;;;;;6125460;23;20010;-87
2022/01/10 04:22:49;;;;;;;28.08;8.00;;;3.30;99.90;;;;;;6101722;23;20009;-87
2022/01/10 04:25:15;;;;;;;24.88;7.85;;;3.30;99.90;;;;;;6102962;23;20393;-87
2022/01/10 04:27:41;;;;;;;24.95;8.00;;;3.60;99.90;;;;;;6128592;23;20017;-85
2022/01/10 04:30:08;;;;;;;21.67;7.82;;;3.00;99.90;;;;;;6128753;23;20017;-85
2022/01/10 04:32:33;;;;;;;23.27;8.00;;;2.80;99.90;;;;;;6127796;23;20021;-85
2022/01/10 04:34:59;;;;;;;24.08;8.40;;;3.20;99.90;;;;;;6102911;23;20022;-85
2022/01/10 04:37:25;;;;;;;24.38;8.95;;;3.70;99.90;;;;;;6133119;23;20010;-85
2022/01/10 04:39:51;;;;;;;32.10;8.90;;;3.30;99.90;;;;;;6159686;23;20053;-85
2022/01/10 04:42:17;;;;;;;27.33;8.60;;;2.90;99.90;;;;;;6158644;23;20016;-84
2022/01/10 04:44:43;;;;;;;26.38;8.65;;;3.10;99.90;;;;;;6110510;23;20009;-84
2022/01/10 04:47:10;;;;;;;29.50;9.05;;;2.80;99.90;;;;;;6110717;23;20092;-84
2022/01/10 04:50:36;;;;;;;30.15;9.38;;;3.70;99.90;;;;;;6134564;23;20013;-84
2022/01/10 04:52:22;;;;;;;30.75;9.45;;;3.10;99.90;;;;;;6169295;23;20055;-84
2022/01/10 04:54:48;;;;;;;22.92;9.95;;;3.10;99.90;;;;;;6134520;23;20016;-84
2022/01/10 04:57:16;;;;;;;26.17;8.77;;;3.90;99.90;;;;;;6133869;23;20013;-84
2022/01/10 04:59:42;;;;;;;25.83;9.77;;;3.70;99.90;;;;;;6158799;23;20014;-84
2022/01/10 05:02:09;;;;;;;30.70;10.23;;;3.50;99.90;;;;;;6158940;23;20009;-84
2022/01/10 05:04:38;;;;;;;29.85;9.60;;;3.90;99.90;;;;;;6134259;23;20009;-84
2022/01/10 05:07:04;;;;;;;32.90;9.90;;;2.80;99.90;;;;;;6110028;23;20070;-84
2022/01/10 05:09:30;;;;;;;25.13;10.30;;;2.90;99.90;;;;;;6134704;23;20099;-84
2022/01/10 05:11:58;;;;;;;32.72;10.85;;;2.50;99.90;;;;;;6134243;23;20020;-83
2022/01/10 05:14:24;;;;;;;27.05;10.40;;;3.00;99.90;;;;;;6159551;23;20079;-84
2022/01/10 05:16:50;;;;;;;34.88;10.65;;;3.70;99.90;;;;;;6134823;23;20124;-84
2022/01/10 05:19:16;;;;;;;25.85;11.18;;;3.70;99.90;;;;;;6134643;23;20048;-84
2022/01/10 05:21:42;;;;;;;27.52;10.60;;;2.80;99.90;;;;;;6158655;23;20036;-84
2022/01/10 05:24:11;;;;;;;26.17;10.95;;;3.50;99.90;;;;;;6134465;23;20059;-84
2022/01/10 05:26:37;;;;;;;33.22;11.82;;;2.70;99.90;;;;;;6110026;23;20009;-84
2022/01/10 05:29:03;;;;;;;33.28;10.93;;;3.20;99.90;;;;;;6185316;23;20020;-84
2022/01/10 05:31:33;;;;;;;30.60;12.05;;;2.70;99.90;;;;;;6134382;23;20013;-84
2022/01/10 05:33:59;;;;;;;27.40;11.65;;;2.70;99.90;;;;;;6185505;23;20758;-84
2022/01/10 05:36:27;;;;;;;36.08;12.25;;;3.30;99.90;;;;;;6110194;23;20013;-84
2022/01/10 05:38:54;;;;;;;21.70;11.18;;;3.60;99.90;;;;;;6133901;23;20364;-84
2022/01/10 05:41:22;;;;;;;25.70;12.10;;;2.60;99.90;;;;;;6159082;23;20051;-84
2022/01/10 05:43:48;;;;;;;29.55;11.73;;;3.10;99.90;;;;;;6133817;23;20336;-84
2022/01/10 05:46:18;;;;;;;32.53;12.65;;;3.30;99.90;;;;;;6159055;23;20020;-83
2022/01/10 05:48:49;;;;;;;28.15;12.50;;;2.80;99.90;;;;;;6185086;23;20398;-85
2022/01/10 05:51:16;;;;;;;32.55;13.25;;;2.60;99.90;;;;;;6185046;23;20009;-86
2022/01/10 05:53:44;;;;;;;30.73;13.25;;;3.30;99.90;;;;;;6135910;23;20019;-85
2022/01/10 05:56:10;;;;;;;33.78;13.43;;;3.10;99.90;;;;;;6136107;23;20013;-85
2022/01/10 05:58:36;;;;;;;34.85;14.07;;;2.60;99.90;;;;;;6136133;23;20013;-86
2022/01/10 06:01:05;;;;;;;37.58;13.88;;;2.60;99.90;;;;;;6135563;23;20013;-84
2022/01/10 06:03:31;;;;;;;35.55;14.00;;;2.60;99.90;;;;;;6136107;23;20443;-84
2022/01/10 06:05:57;;;;;;;31.77;13.80;;;3.00;99.90;;;;;;6160488;23;20016;-84
2022/01/10 06:08:26;;;;;;;32.35;13.80;;;;;;;;;;6136882;23;20017;-84
2022/01/10 06:10:55;;;;;;;32.80;13.55;;;2.60;99.90;;;;;;6135547;23;20021;-84
2022/01/10 06:13:21;;;;;;;33.00;15.02;;;;;;;;;;6136136;23;20017;-84
2022/01/10 06:15:51;;;;;;;30.25;14.07;;;2.50;99.90;;;;;;6136066;23;20431;-84
2022/01/10 06:18:20;;;;;;;29.15;14.82;;;2.90;99.90;;;;;;6161439;23;20017;-84
2022/01/10 06:20:46;;;;;;;35.53;15.30;;;2.50;99.90;;;;;;6135919;23;20009;-84
2022/01/10 06:23:11;;;;;;;34.75;15.23;;;3.30;99.90;;;;;;6135812;23;20312;-83
2022/01/10 06:25:39;;;;;;;31.85;14.82;;;2.40;99.90;;;;;;6160348;23;20436;-83
2022/01/10 06:28:06;;;;;;;31.70;14.63;;;2.50;99.90;;;;;;6135486;23;20072;-83
2022/01/10 06:30:32;;;;;;;34.50;14.88;;;2.80;99.90;;;;;;6111989;23;20080;-83
2022/01/10 06:32:58;;;;;;;33.25;15.27;;;2.90;99.90;;;;;;6135321;23;20444;-83
2022/01/10 06:35:24;;;;;;;32.38;15.55;;;3.30;99.90;;;;;;6160531;23;20009;-83
2022/01/10 06:37:51;;;;;;;37.35;15.88;;;2.90;99.90;;;;;;6132433;23;20067;-83
2022/01/10 06:40:17;;;;;;;36.78;16.42;;;2.40;99.90;;;;;;6186104;23;20021;-83
2022/01/10 06:42:43;;;;;;;36.38;15.20;;;2.80;99.90;;;;;;6160471;23;20336;-83
2022/01/10 06:45:10;;;;;;;35.05;16.20;;;2.40;99.90;;;;;;6110817;23;20013;-83
2022/01/10 06:47:37;;;;;;;38.00;16.55;;;3.40;99.90;;;;;;6160648;23;20013;-83
2022/01/10 06:50:07;;;;;;;39.67;16.13;;;2.40;99.90;;;;;;6160369;23;20017;-83
2022/01/10 06:52:33;;;;;;;41.13;16.10;;;2.40;99.90;;;;;;6135294;23;20094;-71
2022/01/10 06:54:59;;;;;;;32.97;16.25;;;2.40;99.90;;;;;;6185904;23;20435;-78
2022/01/10 06:57:25;;;;;;;33.70;16.25;;;2.40;99.90;;;;;;6185677;23;20335;-72
2022/01/10 06:59:52;;;;;;;44.72;16.73;;;2.30;99.90;;;;;;6185603;23;20024;-72
2022/01/10 07:02:18;;;;;;;38.80;17.63;;;2.40;99.90;;;;;;6159610;23;20013;-74
2022/01/10 07:04:44;;;;;;;32.45;16.40;;;2.40;99.90;;;;;;6185579;23;20071;-75
2022/01/10 07:07:12;;;;;;;44.85;17.90;;;2.40;99.90;;;;;;6135262;23;20020;-74
2022/01/10 07:09:38;;;;;;;36.92;17.08;;;2.60;99.90;;;;;;6159296;23;20439;-74
2022/01/10 07:12:07;;;;;;;33.45;17.08;;;2.40;99.90;;;;;;6185899;23;20013;-74
2022/01/10 07:14:35;;;;;;;34.20;16.92;;;2.40;99.90;;;;;;6111043;23;20040;-74
2022/01/10 07:17:03;;;;;;;40.78;17.17;;;2.40;99.90;;;;;;6158884;23;20458;-76
2022/01/10 07:19:29;;;;;;;39.38;16.55;;;2.40;99.90;;;;;;6185099;23;20020;-80
2022/01/10 07:21:55;;;;;;;33.95;16.95;;;2.40;99.90;;;;;;6158959;23;20013;-79
2022/01/10 07:24:24;;;;;;;37.50;17.90;;;2.40;99.90;;;;;;6158300;23;20024;-78
2022/01/10 07:26:52;;;;;;;37.80;17.65;;;2.40;99.90;;;;;;6185545;23;20043;-81
2022/01/10 07:29:20;;;;;;;39.58;18.25;;;2.40;99.90;;;;;;6158664;23;20040;-77
2022/01/10 07:31:46;;;;;;;42.00;18.17;;;2.40;99.90;;;;;;6159140;23;20013;-74
2022/01/10 07:34:14;;;;;;;39.55;18.52;;;2.40;99.90;;;;;;6154393;23;20080;-75
2022/01/10 07:36:40;;;;;;;39.47;18.55;;;2.40;99.90;;;;;;6181901;23;20088;-78
2022/01/10 07:39:06;;;;;;;36.97;18.90;;;2.40;99.90;;;;;;6155085;23;20048;-76
2022/01/10 07:41:32;;;;;;;35.78;19.20;;;2.40;99.90;;;;;;6155651;23;20335;-76
2022/01/10 07:43:59;;;;;;;42.25;20.05;;;2.40;99.90;;;;;;6154909;23;20024;-76
2022/01/10 07:46:25;;;;;;;41.30;20.25;;;2.40;99.90;;;;;;6181646;23;20016;-76
2022/01/10 07:48:54;;;;;;;41.20;20.00;;;2.40;99.90;;;;;;6182599;23;20511;-76
2022/01/10 07:51:20;;;;;;;36.03;20.55;;;2.40;99.90;;;;;;6182343;23;20043;-76
2022/01/10 07:53:45;;;;;;;37.40;19.33;;;2.40;99.90;;;;;;6130782;23;20016;-76
2022/01/10 07:56:11;;;;;;;42.10;19.33;;;2.40;99.90;;;;;;6130574;23;20459;-76
2022/01/10 07:58:38;;;;;;;41.70;19.65;;;2.40;99.90;;;;;;6155361;23;20024;-76
2022/01/10 08:01:04;;;;;;;35.70;18.45;;;2.90;99.90;;;;;;6155719;23;20458;-76
2022/01/10 08:03:30;;;;;;;41.80;19.70;;;2.30;99.90;;;;;;6182877;23;20032;-76
2022/01/10 08:05:56;;;;;;;38.25;19.40;;;2.40;99.90;;;;;;6155131;23;20100;-76
2022/01/10 08:08:21;;;;;;;35.08;19.30;;;2.90;99.90;;;;;;6182165;23;20110;-76
2022/01/10 08:10:47;;;;;;;38.97;19.65;;;2.40;99.90;;;;;;6156264;23;20470;-76
2022/01/10 08:13:13;;;;;;;49.33;20.13;;;2.40;99.90;;;;;;6155719;23;20040;-76
2022/01/10 08:15:39;;;;;;;45.60;21.05;;;2.40;99.90;;;;;;6181629;23;20013;-76
2022/01/10 08:18:07;;;;;;;37.78;20.75;;;2.30;99.90;;;;;;6155512;23;20067;-76
2022/01/10 08:20:35;;;;;;;43.75;21.75;;;2.30;99.90;;;;;;6181827;23;20013;-76
2022/01/10 08:23:01;;;;;;;40.78;20.02;;;2.30;99.90;;;;;;6107341;23;20020;-77
2022/01/10 08:25:27;;;;;;;40.17;20.88;;;2.40;99.90;;;;;;6131720;23;20009;-75
2022/01/10 08:27:53;;;;;;;41.28;20.83;;;2.30;99.90;;;;;;6131431;23;20095;-75
2022/01/10 08:30:18;;;;;;;39.90;21.42;;;2.40;99.90;;;;;;6081652;23;20032;-75
2022/01/10 08:32:49;;;;;;;44.95;20.60;;;2.40;99.90;;;;;;6130916;23;20025;-75
2022/01/10 08:35:16;;;;;;;41.80;19.77;;;2.30;99.90;;;;;;6154735;23;20017;-74
2022/01/10 08:37:41;;;;;;;40.28;20.08;;;1.60;99.90;;;;;;6131094;23;20075;-75
2022/01/10 08:40:08;;;;;;;43.65;19.90;;;2.90;99.90;;;;;;6131066;23;20343;-74
2022/01/10 08:42:34;;;;;;;37.75;20.90;;;2.40;99.90;;;;;;6181485;23;20016;-74
2022/01/10 08:44:59;;;;;;;41.47;20.30;;;2.40;99.90;;;;;;6154164;23;20485;-75
2022/01/10 08:47:27;;;;;;;35.88;21.80;;;2.40;99.90;;;;;;6153907;23;20462;-74
2022/01/10 08:49:53;;;;;;;37.78;20.63;;;2.40;99.90;;;;;;6155412;23;20095;-75
2022/01/10 08:52:19;;;;;;;37.72;21.02;;;2.40;99.90;;;;;;6130257;23;20017;-75
2022/01/10 08:54:47;;;;;;;39.17;20.70;;;2.40;99.90;;;;;;6130604;23;20403;-75
2022/01/10 08:57:12;;;;;;;34.50;19.90;;;2.40;99.90;;;;;;6107042;23;20331;-75
2022/01/10 08:59:38;;;;;;;36.53;20.42;;;2.50;99.90;;;;;;6105471;23;20017;-75
2022/01/10 09:02:04;;;;;;;39.25;20.83;;;2.50;99.90;;;;;;6130066;23;20023;-75
2022/01/10 09:04:29;;;;;;;36.85;20.40;;;2.50;99.90;;;;;;6154457;23;20010;-75
2022/01/10 09:06:55;;;;;;;40.55;20.27;;;2.50;99.90;;;;;;6130130;23;20024;-75
2022/01/10 09:09:22;;;;;;;39.13;20.88;;;2.60;99.90;;;;;;6154990;23;20351;-75
2022/01/10 09:11:49;;;;;;;38.00;21.42;;;2.60;99.90;;;;;;6154511;23;20028;-75
2022/01/10 09:14:16;;;;;;;45.35;20.77;;;2.80;99.90;;;;;;6180912;23;20017;-75
2022/01/10 09:16:42;;;;;;;44.95;21.38;;;2.80;99.90;;;;;;6154993;23;20013;-75
2022/01/10 09:19:08;;;;;;;38.75;20.02;;;3.00;99.90;;;;;;6130217;23;20043;-75
2022/01/10 09:21:35;;;;;;;36.92;20.95;;;2.70;99.90;;;;;;6106538;23;20013;-75
2022/01/10 09:24:01;;;;;;;43.90;20.92;;;2.80;99.90;;;;;;6155785;23;20017;-75
2022/01/10 09:26:27;;;;;;;40.90;21.13;;;3.00;99.90;;;;;;6105206;23;20113;-75
2022/01/10 09:28:53;;;;;;;41.13;22.30;;;2.90;99.90;;;;;;6156852;23;20029;-75
2022/01/10 09:31:21;;;;;;;50.17;23.73;;;2.90;99.90;;;;;;6182914;23;20013;-75
2022/01/10 09:33:53;;;;;;;39.78;22.02;;;2.90;99.90;;;;;;6183585;23;20107;-74
2022/01/10 09:36:21;;;;;;;44.33;23.17;;;3.10;99.90;;;;;;6183621;23;20089;-75
2022/01/10 09:38:47;;;;;;;45.03;23.02;;;3.20;99.90;;;;;;6131990;23;20025;-75
2022/01/10 09:41:13;;;;;;;47.38;22.27;;;3.20;99.90;;;;;;6184446;23;20019;-75
2022/01/10 09:43:40;;;;;;;46.00;22.52;;;3.10;99.90;;;;;;6157398;23;20059;-75
2022/01/10 09:46:06;;;;;;;41.85;22.65;;;3.10;99.90;;;;;;6108214;23;20084;-76
2022/01/10 09:48:32;;;;;;;43.83;22.52;;;3.30;99.90;;;;;;6157173;23;20044;-75
2022/01/10 09:50:57;;;;;;;39.80;23.25;;;3.20;99.90;;;;;;6184201;23;20036;-75
2022/01/10 09:53:24;;;;;;;45.72;23.23;;;3.20;99.90;;;;;;6156913;23;20059;-76
2022/01/10 09:55:50;;;;;;;45.88;25.15;;;3.30;99.90;;;;;;6132192;23;20021;-75
2022/01/10 09:58:19;;;;;;;38.20;22.40;;;3.30;99.90;;;;;;6157590;23;20027;-78
2022/01/10 10:00:47;;;;;;;43.30;23.65;;;3.50;99.90;;;;;;6156314;23;20436;-83
2022/01/10 10:03:23;;;;;;;;;;;;;;;;;;;;;
2022/01/10 10:06:16;;;;;;;44.85;23.20;;;3.00;99.90;;;;;;6183729;23;20020;-79
2022/01/10 10:08:43;;;;;;;42.13;22.85;;;3.40;99.90;;;;;;6132802;23;20352;-77
2022/01/10 10:11:09;;;;;;;43.83;21.77;;;3.40;99.90;;;;;;6133187;23;20095;-77
2022/01/10 10:13:56;;;;;;;51.25;24.23;;;3.40;99.90;;;;;;6182567;23;20017;-76
2022/01/10 10:16:23;;;;;;;41.55;23.83;;;3.40;99.90;;;;;;6132047;23;20047;-76
2022/01/10 10:18:50;;;;;;;37.67;21.88;;;3.50;99.90;;;;;;6157141;23;20336;-75
2022/01/10 10:21:18;;;;;;;40.05;22.63;;;3.80;99.90;;;;;;6132571;23;20017;-75
2022/01/10 10:23:50;;;;;;;46.10;22.42;;;3.70;99.90;;;;;;6182866;23;20013;-75
2022/01/10 10:26:21;;;;;;;42.05;22.90;;;3.60;99.90;;;;;;6156355;23;20028;-75
2022/01/10 10:28:48;;;;;;;40.92;22.10;;;3.60;99.90;;;;;;6131581;23;20017;-76
2022/01/10 10:31:31;;;;;;;48.22;22.50;;;3.70;99.90;;;;;;6183356;23;20483;-75
2022/01/10 10:34:01;;;;;;;44.47;23.20;;;3.70;99.90;;;;;;6132042;23;20017;-75
2022/01/10 10:36:30;;;;;;;47.72;23.13;;;3.80;99.90;;;;;;6132307;23;20044;-76
2022/01/10 10:38:57;;;;;;;44.22;22.15;;;3.80;99.90;;;;;;6156273;23;20044;-75
2022/01/10 10:41:23;;;;;;;37.08;22.80;;;3.90;99.90;;;;;;6132122;23;20025;-76
2022/01/10 10:43:54;;;;;;;44.03;21.10;;;3.90;99.90;;;;;;6183411;23;20044;-75
2022/01/10 10:46:26;;;;;;;42.75;22.60;;;3.90;99.90;;;;;;6156522;23;20033;-81
2022/01/10 10:48:57;;;;;;;45.42;22.42;;;4.30;99.90;;;;;;6157800;23;20028;-81
2022/01/10 10:51:26;;;;;;;42.58;21.80;;;4.00;99.90;;;;;;6159481;23;20035;-81
2022/01/10 10:54:00;;;;;;;44.28;21.83;;;4.00;99.90;;;;;;6186161;23;20100;-81
2022/01/10 10:56:35;;;;;;;41.80;23.08;;;4.80;99.90;;;;;;6136092;23;20024;-81
2022/01/10 10:59:01;;;;;;;37.35;22.00;;;4.80;99.90;;;;;;6134814;23;20021;-81
2022/01/10 11:01:27;;;;;;;43.78;22.98;;;4.20;99.90;;;;;;6159127;23;20040;-81
2022/01/10 11:03:56;;;;;;;39.35;21.75;;;4.10;99.90;;;;;;6159676;23;20013;-81
2022/01/10 11:06:29;;;;;;;41.10;23.20;;;4.10;99.90;;;;;;6134877;23;20071;-80
2022/01/10 11:08:57;;;;;;;43.03;20.85;;;4.20;99.90;;;;;;6134170;23;20446;-80
2022/01/10 11:11:23;;;;;;;35.63;21.10;;;4.20;99.90;;;;;;6134687;23;20020;-80
2022/01/10 11:13:51;;;;;;;44.75;21.27;;;4.20;99.90;;;;;;6185345;23;20020;-80
2022/01/10 11:16:19;;;;;;;40.20;20.90;;;4.40;99.90;;;;;;6134826;23;20017;-81
2022/01/10 11:18:46;;;;;;;45.97;22.58;;;4.20;99.90;;;;;;6109720;23;20023;-81
2022/01/10 11:21:13;;;;;;;43.70;21.45;;;4.20;99.90;;;;;;6158937;23;20013;-81
2022/01/10 11:23:41;;;;;;;38.22;20.63;;;4.10;99.90;;;;;;6159072;23;20088;-81
2022/01/10 11:26:08;;;;;;;45.60;23.90;;;4.40;99.90;;;;;;6134167;23;20462;-81
2022/01/10 11:28:34;;;;;;;47.58;24.52;;;4.40;99.90;;;;;;6134841;23;20024;-81
2022/01/10 11:31:03;;;;;;;44.92;23.50;;;4.40;99.90;;;;;;6110207;23;20021;-81
2022/01/10 11:33:35;;;;;;;45.40;22.65;;;4.50;99.90;;;;;;6134738;23;20016;-81
2022/01/10 11:36:07;;;;;;;44.33;22.13;;;4.50;99.90;;;;;;6158317;23;20466;-81
2022/01/10 11:38:37;;;;;;;38.20;21.45;;;4.50;99.90;;;;;;6134400;23;20021;-81
2022/01/10 11:41:07;;;;;;;39.80;20.63;;;4.20;99.90;;;;;;6159427;23;20050;-81
2022/01/10 11:43:56;;;;;;;39.63;20.73;;;4.60;99.90;;;;;;6159726;23;20040;-81
2022/01/10 11:46:37;;;;;;;41.90;20.60;;;4.60;99.90;;;;;;6159551;23;20017;-81
2022/01/10 11:49:23;;;;;;;34.30;19.15;;;4.60;99.90;;;;;;6159409;23;20021;-81
2022/01/10 11:51:52;;;;;;;41.67;22.10;;;4.70;99.90;;;;;;6185257;23;20131;-81
2022/01/10 11:54:30;;;;;;;42.85;21.38;;;5.20;99.90;;;;;;6158600;23;20071;-81
2022/01/10 11:57:07;;;;;;;46.15;22.77;;;4.70;99.90;;;;;;6159155;23;20347;-80
2022/01/10 11:59:38;;;;;;;40.83;21.83;;;5.20;99.90;;;;;;6134050;23;20013;-81
2022/01/10 12:02:16;;;;;;;37.17;21.33;;;4.80;99.90;;;;;;6133986;23;20075;-80
2022/01/10 12:04:53;;;;;;;41.20;21.50;;;4.80;99.90;;;;;;6158619;23;20024;-81
2022/01/10 12:07:24;;;;;;;42.95;21.27;;;4.90;99.90;;;;;;6159173;23;20013;-81
2022/01/10 12:09:51;;;;;;;39.65;20.38;;;5.30;99.90;;;;;;6158782;23;20502;-81
2022/01/10 12:12:20;;;;;;;47.55;21.85;;;4.90;99.90;;;;;;6158850;23;20339;-81
2022/01/10 12:14:47;;;;;;;38.08;20.85;;;5.00;99.90;;;;;;6158839;23;20017;-81
2022/01/10 12:17:14;;;;;;;43.83;19.50;;;5.60;99.90;;;;;;6134331;23;20055;-80
2022/01/10 12:19:40;;;;;;;42.53;21.05;;;5.30;99.90;;;;;;6134519;23;20052;-80
2022/01/10 12:22:12;;;;;;;36.03;20.42;;;5.90;99.90;;;;;;6158629;23;20024;-81
2022/01/10 12:24:41;;;;;;;43.15;20.27;;;5.50;99.90;;;;;;6159265;23;20017;-81
2022/01/10 12:27:09;;;;;;;37.95;20.25;;;5.50;99.90;;;;;;6157746;23;20013;-81
2022/01/10 12:29:35;;;;;;;37.50;19.80;;;5.90;99.90;;;;;;6157891;23;20017;-80
2022/01/10 12:32:04;;;;;;;42.03;20.23;;;5.40;99.90;;;;;;6158782;23;20020;-81
2022/01/10 12:34:30;;;;;;;32.95;19.20;;;5.40;99.90;;;;;;6158828;23;20016;-81
2022/01/10 12:36:56;;;;;;;40.42;18.35;;;5.30;99.90;;;;;;6132305;23;20021;-78
2022/01/10 12:39:28;;;;;;;36.50;17.98;;;5.30;99.90;;;;;;6151322;23;20483;-79
2022/01/10 12:41:56;;;;;;;33.63;17.58;;;5.80;99.90;;;;;;6181743;23;20088;-79
2022/01/10 12:44:23;;;;;;;40.20;17.10;;;5.50;99.90;;;;;;6131115;23;20024;-79
2022/01/10 12:46:50;;;;;;;34.35;17.08;;;5.40;99.90;;;;;;6131538;23;20040;-79
2022/01/10 12:49:16;;;;;;;29.30;16.42;;;5.40;99.90;;;;;;6182606;23;20024;-81
2022/01/10 12:51:54;;;;;;;37.03;16.50;;;5.30;99.90;;;;;;6131824;23;20013;-81
2022/01/10 12:54:26;;;;;;;36.35;16.58;;;5.40;99.90;;;;;;6182234;23;20017;-81